sensor_id;sensor_type;location;lat;lon;timestamp;P1;durP1;ratioP1;P2;durP2;ratioP2
77417;SDS011;66490;51.484;0.026;2023-05-16T00:01:25;6.45;;;3.03;;
77417;SDS011;66490;51.484;0.026;2023-05-16T00:04:13;9.43;;;2.90;;
77417;SDS011;66490;51.484;0.026;2023-05-16T00:06:57;8.80;;;2.85;;
77417;SDS011;66490;51.484;0.026;2023-05-16T00:09:41;7.78;;;2.05;;
77417;SDS011;66490;51.484;0.026;2023-05-16T00:12:25;8.93;;;3.35;;
77417;SDS011;66490;51.484;0.026;2023-05-16T00:15:09;10.77;;;3.63;;
77417;SDS011;66490;51.484;0.026;2023-05-16T00:17:55;7.70;;;3.00;;
77417;SDS011;66490;51.484;0.026;2023-05-16T00:20:42;7.90;;;3.28;;
77417;SDS011;66490;51.484;0.026;2023-05-16T00:23:27;7.45;;;3.17;;
77417;SDS011;66490;51.484;0.026;2023-05-16T00:26:11;7.75;;;2.83;;
77417;SDS011;66490;51.484;0.026;2023-05-16T00:28:55;13.88;;;3.53;;
77417;SDS011;66490;51.484;0.026;2023-05-16T00:31:39;8.97;;;3.50;;
77417;SDS011;66490;51.484;0.026;2023-05-16T00:34:23;9.73;;;3.65;;
77417;SDS011;66490;51.484;0.026;2023-05-16T00:37:07;11.27;;;3.90;;
77417;SDS011;66490;51.484;0.026;2023-05-16T00:39:51;10.55;;;3.78;;
77417;SDS011;66490;51.484;0.026;2023-05-16T00:42:35;8.20;;;3.78;;
77417;SDS011;66490;51.484;0.026;2023-05-16T00:45:19;8.70;;;3.33;;
77417;SDS011;66490;51.484;0.026;2023-05-16T00:48:03;8.55;;;3.08;;
77417;SDS011;66490;51.484;0.026;2023-05-16T00:50:47;10.63;;;3.60;;
77417;SDS011;66490;51.484;0.026;2023-05-16T00:53:31;9.73;;;3.30;;
77417;SDS011;66490;51.484;0.026;2023-05-16T00:56:16;9.07;;;3.65;;
77417;SDS011;66490;51.484;0.026;2023-05-16T00:59:00;6.87;;;3.07;;
77417;SDS011;66490;51.484;0.026;2023-05-16T01:01:45;8.65;;;3.40;;
77417;SDS011;66490;51.484;0.026;2023-05-16T01:04:29;9.52;;;3.40;;
77417;SDS011;66490;51.484;0.026;2023-05-16T01:07:13;8.57;;;3.10;;
77417;SDS011;66490;51.484;0.026;2023-05-16T01:09:59;12.05;;;4.68;;
77417;SDS011;66490;51.484;0.026;2023-05-16T01:13:19;8.93;;;2.80;;
77417;SDS011;66490;51.484;0.026;2023-05-16T01:16:14;9.35;;;3.83;;
77417;SDS011;66490;51.484;0.026;2023-05-16T01:19:03;11.45;;;4.25;;
77417;SDS011;66490;51.484;0.026;2023-05-16T01:22:10;10.23;;;3.65;;
77417;SDS011;66490;51.484;0.026;2023-05-16T01:25:09;8.55;;;3.50;;
77417;SDS011;66490;51.484;0.026;2023-05-16T01:27:54;11.17;;;3.90;;
77417;SDS011;66490;51.484;0.026;2023-05-16T01:30:40;11.90;;;4.72;;
77417;SDS011;66490;51.484;0.026;2023-05-16T01:33:24;10.27;;;4.43;;
77417;SDS011;66490;51.484;0.026;2023-05-16T01:39:13;10.48;;;4.47;;
77417;SDS011;66490;51.484;0.026;2023-05-16T01:42:13;10.20;;;4.03;;
77417;SDS011;66490;51.484;0.026;2023-05-16T01:45:14;13.05;;;4.35;;
77417;SDS011;66490;51.484;0.026;2023-05-16T01:48:06;10.07;;;4.18;;
77417;SDS011;66490;51.484;0.026;2023-05-16T01:50:53;8.52;;;3.40;;
77417;SDS011;66490;51.484;0.026;2023-05-16T01:53:37;10.75;;;4.72;;
77417;SDS011;66490;51.484;0.026;2023-05-16T01:56:21;11.07;;;4.30;;
77417;SDS011;66490;51.484;0.026;2023-05-16T01:59:06;10.48;;;3.80;;
77417;SDS011;66490;51.484;0.026;2023-05-16T02:01:56;11.18;;;4.40;;
77417;SDS011;66490;51.484;0.026;2023-05-16T02:04:43;11.65;;;4.07;;
77417;SDS011;66490;51.484;0.026;2023-05-16T02:07:27;9.45;;;4.03;;
77417;SDS011;66490;51.484;0.026;2023-05-16T02:10:11;9.33;;;3.97;;
77417;SDS011;66490;51.484;0.026;2023-05-16T02:12:56;9.75;;;3.90;;
77417;SDS011;66490;51.484;0.026;2023-05-16T02:15:40;15.18;;;4.55;;
77417;SDS011;66490;51.484;0.026;2023-05-16T02:18:24;9.30;;;4.07;;
77417;SDS011;66490;51.484;0.026;2023-05-16T02:21:08;9.55;;;3.83;;
77417;SDS011;66490;51.484;0.026;2023-05-16T02:23:52;11.17;;;3.70;;
77417;SDS011;66490;51.484;0.026;2023-05-16T02:26:36;11.50;;;4.38;;
77417;SDS011;66490;51.484;0.026;2023-05-16T02:29:20;11.80;;;4.32;;
77417;SDS011;66490;51.484;0.026;2023-05-16T02:32:04;10.55;;;3.20;;
77417;SDS011;66490;51.484;0.026;2023-05-16T02:34:48;10.20;;;4.13;;
77417;SDS011;66490;51.484;0.026;2023-05-16T02:37:32;8.83;;;3.93;;
77417;SDS011;66490;51.484;0.026;2023-05-16T02:40:16;10.15;;;3.83;;
77417;SDS011;66490;51.484;0.026;2023-05-16T02:43:00;9.45;;;3.90;;
77417;SDS011;66490;51.484;0.026;2023-05-16T02:45:46;12.43;;;4.40;;
77417;SDS011;66490;51.484;0.026;2023-05-16T02:48:30;12.38;;;5.15;;
77417;SDS011;66490;51.484;0.026;2023-05-16T02:51:14;14.33;;;4.07;;
77417;SDS011;66490;51.484;0.026;2023-05-16T02:53:58;9.93;;;4.15;;
77417;SDS011;66490;51.484;0.026;2023-05-16T02:56:45;9.43;;;3.90;;
77417;SDS011;66490;51.484;0.026;2023-05-16T02:59:29;9.35;;;4.28;;
77417;SDS011;66490;51.484;0.026;2023-05-16T03:02:13;9.23;;;4.80;;
77417;SDS011;66490;51.484;0.026;2023-05-16T03:04:57;11.67;;;3.87;;
77417;SDS011;66490;51.484;0.026;2023-05-16T03:07:41;10.07;;;3.58;;
77417;SDS011;66490;51.484;0.026;2023-05-16T03:10:27;10.60;;;3.80;;
77417;SDS011;66490;51.484;0.026;2023-05-16T03:13:12;10.25;;;3.92;;
77417;SDS011;66490;51.484;0.026;2023-05-16T03:15:56;9.10;;;4.40;;
77417;SDS011;66490;51.484;0.026;2023-05-16T03:18:40;9.30;;;3.70;;
77417;SDS011;66490;51.484;0.026;2023-05-16T03:21:24;10.40;;;4.13;;
77417;SDS011;66490;51.484;0.026;2023-05-16T03:24:09;9.20;;;4.05;;
77417;SDS011;66490;51.484;0.026;2023-05-16T03:26:53;14.02;;;4.15;;
77417;SDS011;66490;51.484;0.026;2023-05-16T03:29:37;10.02;;;4.30;;
77417;SDS011;66490;51.484;0.026;2023-05-16T03:32:21;10.80;;;4.77;;
77417;SDS011;66490;51.484;0.026;2023-05-16T03:35:05;9.10;;;4.28;;
77417;SDS011;66490;51.484;0.026;2023-05-16T03:37:49;11.40;;;4.10;;
77417;SDS011;66490;51.484;0.026;2023-05-16T03:40:33;9.95;;;3.60;;
77417;SDS011;66490;51.484;0.026;2023-05-16T03:43:18;12.45;;;4.85;;
77417;SDS011;66490;51.484;0.026;2023-05-16T03:46:02;9.80;;;4.00;;
77417;SDS011;66490;51.484;0.026;2023-05-16T03:48:46;10.48;;;4.60;;
77417;SDS011;66490;51.484;0.026;2023-05-16T03:51:30;10.18;;;4.25;;
77417;SDS011;66490;51.484;0.026;2023-05-16T03:54:14;9.68;;;3.97;;
77417;SDS011;66490;51.484;0.026;2023-05-16T03:56:58;9.48;;;4.47;;
77417;SDS011;66490;51.484;0.026;2023-05-16T03:59:42;8.73;;;3.23;;
77417;SDS011;66490;51.484;0.026;2023-05-16T04:02:26;9.75;;;3.42;;
77417;SDS011;66490;51.484;0.026;2023-05-16T04:05:10;9.05;;;3.75;;
77417;SDS011;66490;51.484;0.026;2023-05-16T04:07:55;7.40;;;3.72;;
77417;SDS011;66490;51.484;0.026;2023-05-16T04:10:39;7.78;;;3.38;;
77417;SDS011;66490;51.484;0.026;2023-05-16T04:13:23;12.00;;;3.33;;
77417;SDS011;66490;51.484;0.026;2023-05-16T04:16:09;10.43;;;3.33;;
77417;SDS011;66490;51.484;0.026;2023-05-16T04:18:53;8.18;;;3.67;;
77417;SDS011;66490;51.484;0.026;2023-05-16T04:21:37;9.30;;;3.08;;
77417;SDS011;66490;51.484;0.026;2023-05-16T04:24:23;8.13;;;3.42;;
77417;SDS011;66490;51.484;0.026;2023-05-16T04:27:09;7.37;;;2.80;;
77417;SDS011;66490;51.484;0.026;2023-05-16T04:29:52;12.65;;;2.15;;
77417;SDS011;66490;51.484;0.026;2023-05-16T04:32:36;8.35;;;2.47;;
77417;SDS011;66490;51.484;0.026;2023-05-16T04:35:21;7.97;;;3.03;;
77417;SDS011;66490;51.484;0.026;2023-05-16T04:38:04;9.05;;;2.80;;
77417;SDS011;66490;51.484;0.026;2023-05-16T04:40:48;10.03;;;2.57;;
77417;SDS011;66490;51.484;0.026;2023-05-16T04:43:33;5.35;;;3.00;;
77417;SDS011;66490;51.484;0.026;2023-05-16T04:46:18;12.60;;;3.35;;
77417;SDS011;66490;51.484;0.026;2023-05-16T04:49:03;13.32;;;2.40;;
77417;SDS011;66490;51.484;0.026;2023-05-16T04:51:47;11.00;;;2.40;;
77417;SDS011;66490;51.484;0.026;2023-05-16T04:54:32;7.40;;;1.80;;
77417;SDS011;66490;51.484;0.026;2023-05-16T04:57:16;8.68;;;1.70;;
77417;SDS011;66490;51.484;0.026;2023-05-16T05:00:00;8.77;;;2.63;;
77417;SDS011;66490;51.484;0.026;2023-05-16T05:02:44;7.28;;;1.75;;
77417;SDS011;66490;51.484;0.026;2023-05-16T05:05:28;8.02;;;2.05;;
77417;SDS011;66490;51.484;0.026;2023-05-16T05:08:12;10.90;;;2.27;;
77417;SDS011;66490;51.484;0.026;2023-05-16T05:10:56;6.93;;;1.77;;
77417;SDS011;66490;51.484;0.026;2023-05-16T05:13:40;10.07;;;2.42;;
77417;SDS011;66490;51.484;0.026;2023-05-16T05:16:25;8.25;;;2.00;;
77417;SDS011;66490;51.484;0.026;2023-05-16T05:19:09;8.45;;;1.67;;
77417;SDS011;66490;51.484;0.026;2023-05-16T05:21:53;6.97;;;2.27;;
77417;SDS011;66490;51.484;0.026;2023-05-16T05:24:37;9.15;;;2.05;;
77417;SDS011;66490;51.484;0.026;2023-05-16T05:27:21;4.40;;;1.80;;
77417;SDS011;66490;51.484;0.026;2023-05-16T05:30:08;6.78;;;1.98;;
77417;SDS011;66490;51.484;0.026;2023-05-16T05:32:52;9.45;;;1.90;;
77417;SDS011;66490;51.484;0.026;2023-05-16T05:35:37;11.23;;;2.33;;
77417;SDS011;66490;51.484;0.026;2023-05-16T05:38:21;8.88;;;2.22;;
77417;SDS011;66490;51.484;0.026;2023-05-16T05:41:06;9.32;;;2.40;;
77417;SDS011;66490;51.484;0.026;2023-05-16T05:43:50;11.23;;;1.95;;
77417;SDS011;66490;51.484;0.026;2023-05-16T05:46:34;7.47;;;2.00;;
77417;SDS011;66490;51.484;0.026;2023-05-16T05:49:18;7.47;;;1.90;;
77417;SDS011;66490;51.484;0.026;2023-05-16T05:52:02;11.35;;;1.80;;
77417;SDS011;66490;51.484;0.026;2023-05-16T05:54:46;9.27;;;1.92;;
77417;SDS011;66490;51.484;0.026;2023-05-16T05:57:31;10.30;;;2.80;;
77417;SDS011;66490;51.484;0.026;2023-05-16T06:00:15;8.20;;;2.30;;
77417;SDS011;66490;51.484;0.026;2023-05-16T06:03:01;10.20;;;2.17;;
77417;SDS011;66490;51.484;0.026;2023-05-16T06:05:45;10.07;;;2.00;;
77417;SDS011;66490;51.484;0.026;2023-05-16T06:08:29;9.38;;;1.63;;
77417;SDS011;66490;51.484;0.026;2023-05-16T06:11:13;10.40;;;1.92;;
77417;SDS011;66490;51.484;0.026;2023-05-16T06:13:57;11.05;;;2.65;;
77417;SDS011;66490;51.484;0.026;2023-05-16T06:16:41;12.90;;;3.37;;
77417;SDS011;66490;51.484;0.026;2023-05-16T06:19:25;9.55;;;2.03;;
77417;SDS011;66490;51.484;0.026;2023-05-16T06:22:09;8.35;;;2.67;;
77417;SDS011;66490;51.484;0.026;2023-05-16T06:24:55;7.43;;;2.40;;
77417;SDS011;66490;51.484;0.026;2023-05-16T06:27:39;11.48;;;2.63;;
77417;SDS011;66490;51.484;0.026;2023-05-16T06:30:23;10.13;;;2.13;;
77417;SDS011;66490;51.484;0.026;2023-05-16T06:33:10;12.48;;;2.17;;
77417;SDS011;66490;51.484;0.026;2023-05-16T06:35:54;6.07;;;2.05;;
77417;SDS011;66490;51.484;0.026;2023-05-16T06:38:38;10.95;;;2.38;;
77417;SDS011;66490;51.484;0.026;2023-05-16T06:41:22;6.78;;;3.20;;
77417;SDS011;66490;51.484;0.026;2023-05-16T06:44:06;7.43;;;2.43;;
77417;SDS011;66490;51.484;0.026;2023-05-16T06:46:50;8.82;;;2.30;;
77417;SDS011;66490;51.484;0.026;2023-05-16T06:49:34;10.05;;;2.05;;
77417;SDS011;66490;51.484;0.026;2023-05-16T06:52:18;13.32;;;1.42;;
77417;SDS011;66490;51.484;0.026;2023-05-16T06:55:04;9.95;;;1.63;;
77417;SDS011;66490;51.484;0.026;2023-05-16T06:57:48;11.17;;;2.07;;
77417;SDS011;66490;51.484;0.026;2023-05-16T07:00:32;9.40;;;1.77;;
77417;SDS011;66490;51.484;0.026;2023-05-16T07:03:16;13.45;;;2.10;;
77417;SDS011;66490;51.484;0.026;2023-05-16T07:06:01;13.30;;;2.10;;
77417;SDS011;66490;51.484;0.026;2023-05-16T07:08:45;7.95;;;2.75;;
77417;SDS011;66490;51.484;0.026;2023-05-16T07:11:29;8.40;;;1.70;;
77417;SDS011;66490;51.484;0.026;2023-05-16T07:14:13;9.40;;;1.92;;
77417;SDS011;66490;51.484;0.026;2023-05-16T07:17:00;8.63;;;2.13;;
77417;SDS011;66490;51.484;0.026;2023-05-16T07:19:44;9.15;;;1.90;;
77417;SDS011;66490;51.484;0.026;2023-05-16T07:22:29;9.95;;;2.30;;
77417;SDS011;66490;51.484;0.026;2023-05-16T07:25:15;9.10;;;2.00;;
77417;SDS011;66490;51.484;0.026;2023-05-16T07:27:59;12.70;;;2.28;;
77417;SDS011;66490;51.484;0.026;2023-05-16T07:30:43;8.90;;;2.05;;
77417;SDS011;66490;51.484;0.026;2023-05-16T07:33:27;9.00;;;2.42;;
77417;SDS011;66490;51.484;0.026;2023-05-16T07:36:12;9.65;;;2.00;;
77417;SDS011;66490;51.484;0.026;2023-05-16T07:38:56;12.50;;;2.20;;
77417;SDS011;66490;51.484;0.026;2023-05-16T07:41:42;8.27;;;1.58;;
77417;SDS011;66490;51.484;0.026;2023-05-16T07:44:27;11.35;;;1.98;;
77417;SDS011;66490;51.484;0.026;2023-05-16T07:47:11;8.45;;;1.35;;
77417;SDS011;66490;51.484;0.026;2023-05-16T07:49:55;10.38;;;1.80;;
77417;SDS011;66490;51.484;0.026;2023-05-16T07:52:45;8.30;;;1.70;;
77417;SDS011;66490;51.484;0.026;2023-05-16T07:55:32;9.75;;;1.60;;
77417;SDS011;66490;51.484;0.026;2023-05-16T07:58:16;11.48;;;2.28;;
77417;SDS011;66490;51.484;0.026;2023-05-16T08:01:00;9.10;;;1.48;;
77417;SDS011;66490;51.484;0.026;2023-05-16T08:03:44;8.68;;;1.42;;
77417;SDS011;66490;51.484;0.026;2023-05-16T08:06:28;7.90;;;1.63;;
77417;SDS011;66490;51.484;0.026;2023-05-16T08:09:12;7.72;;;1.27;;
77417;SDS011;66490;51.484;0.026;2023-05-16T08:11:56;11.63;;;2.03;;
77417;SDS011;66490;51.484;0.026;2023-05-16T08:14:40;9.07;;;1.50;;
77417;SDS011;66490;51.484;0.026;2023-05-16T08:17:24;9.85;;;1.88;;
77417;SDS011;66490;51.484;0.026;2023-05-16T08:20:08;11.97;;;1.70;;
77417;SDS011;66490;51.484;0.026;2023-05-16T08:22:53;8.93;;;1.70;;
77417;SDS011;66490;51.484;0.026;2023-05-16T08:25:40;12.90;;;1.60;;
77417;SDS011;66490;51.484;0.026;2023-05-16T08:28:24;14.27;;;2.08;;
77417;SDS011;66490;51.484;0.026;2023-05-16T08:31:08;8.27;;;2.15;;
77417;SDS011;66490;51.484;0.026;2023-05-16T08:33:52;8.83;;;1.17;;
77417;SDS011;66490;51.484;0.026;2023-05-16T08:36:39;7.97;;;1.15;;
77417;SDS011;66490;51.484;0.026;2023-05-16T08:39:26;8.70;;;1.60;;
77417;SDS011;66490;51.484;0.026;2023-05-16T08:42:10;8.32;;;1.40;;
77417;SDS011;66490;51.484;0.026;2023-05-16T08:44:53;8.27;;;1.27;;
77417;SDS011;66490;51.484;0.026;2023-05-16T08:47:38;8.20;;;0.90;;
77417;SDS011;66490;51.484;0.026;2023-05-16T08:50:23;9.20;;;2.15;;
77417;SDS011;66490;51.484;0.026;2023-05-16T08:53:11;6.15;;;1.88;;
77417;SDS011;66490;51.484;0.026;2023-05-16T08:55:55;5.70;;;1.02;;
77417;SDS011;66490;51.484;0.026;2023-05-16T08:58:39;7.25;;;1.73;;
77417;SDS011;66490;51.484;0.026;2023-05-16T09:01:23;7.50;;;1.57;;
77417;SDS011;66490;51.484;0.026;2023-05-16T09:04:07;7.90;;;1.13;;
77417;SDS011;66490;51.484;0.026;2023-05-16T09:06:52;8.52;;;1.65;;
77417;SDS011;66490;51.484;0.026;2023-05-16T09:09:39;8.68;;;1.30;;
77417;SDS011;66490;51.484;0.026;2023-05-16T09:12:23;11.68;;;2.00;;
77417;SDS011;66490;51.484;0.026;2023-05-16T09:15:08;7.57;;;1.93;;
77417;SDS011;66490;51.484;0.026;2023-05-16T09:17:53;5.10;;;1.08;;
77417;SDS011;66490;51.484;0.026;2023-05-16T09:20:37;8.05;;;1.67;;
77417;SDS011;66490;51.484;0.026;2023-05-16T09:23:25;5.55;;;0.95;;
77417;SDS011;66490;51.484;0.026;2023-05-16T09:26:09;7.90;;;1.33;;
77417;SDS011;66490;51.484;0.026;2023-05-16T09:28:54;8.50;;;1.57;;
77417;SDS011;66490;51.484;0.026;2023-05-16T09:31:38;6.90;;;1.10;;
77417;SDS011;66490;51.484;0.026;2023-05-16T09:34:23;6.32;;;1.48;;
77417;SDS011;66490;51.484;0.026;2023-05-16T09:37:10;6.18;;;1.30;;
77417;SDS011;66490;51.484;0.026;2023-05-16T09:39:55;8.18;;;1.27;;
77417;SDS011;66490;51.484;0.026;2023-05-16T09:42:39;4.90;;;1.00;;
77417;SDS011;66490;51.484;0.026;2023-05-16T09:45:24;9.85;;;1.58;;
77417;SDS011;66490;51.484;0.026;2023-05-16T09:48:09;6.60;;;1.35;;
77417;SDS011;66490;51.484;0.026;2023-05-16T09:50:55;9.73;;;1.75;;
77417;SDS011;66490;51.484;0.026;2023-05-16T09:53:42;8.13;;;2.05;;
77417;SDS011;66490;51.484;0.026;2023-05-16T09:56:26;6.17;;;1.17;;
77417;SDS011;66490;51.484;0.026;2023-05-16T09:59:13;9.40;;;1.20;;
77417;SDS011;66490;51.484;0.026;2023-05-16T10:01:57;6.85;;;1.35;;
77417;SDS011;66490;51.484;0.026;2023-05-16T10:04:44;7.68;;;1.40;;
77417;SDS011;66490;51.484;0.026;2023-05-16T10:07:31;6.80;;;1.40;;
77417;SDS011;66490;51.484;0.026;2023-05-16T10:10:18;7.13;;;1.27;;
77417;SDS011;66490;51.484;0.026;2023-05-16T10:13:03;3.67;;;1.05;;
77417;SDS011;66490;51.484;0.026;2023-05-16T10:15:48;4.47;;;1.02;;
77417;SDS011;66490;51.484;0.026;2023-05-16T10:18:33;9.98;;;1.88;;
77417;SDS011;66490;51.484;0.026;2023-05-16T10:21:18;7.45;;;1.50;;
77417;SDS011;66490;51.484;0.026;2023-05-16T10:24:02;8.27;;;1.20;;
77417;SDS011;66490;51.484;0.026;2023-05-16T10:26:49;8.20;;;1.30;;
77417;SDS011;66490;51.484;0.026;2023-05-16T10:29:40;7.00;;;1.30;;
77417;SDS011;66490;51.484;0.026;2023-05-16T10:32:28;6.72;;;1.08;;
77417;SDS011;66490;51.484;0.026;2023-05-16T10:35:12;7.18;;;1.42;;
77417;SDS011;66490;51.484;0.026;2023-05-16T10:37:56;4.97;;;1.17;;
77417;SDS011;66490;51.484;0.026;2023-05-16T10:40:40;7.72;;;1.00;;
77417;SDS011;66490;51.484;0.026;2023-05-16T10:43:26;8.23;;;1.50;;
77417;SDS011;66490;51.484;0.026;2023-05-16T10:46:10;7.30;;;1.20;;
77417;SDS011;66490;51.484;0.026;2023-05-16T10:48:54;7.55;;;1.40;;
77417;SDS011;66490;51.484;0.026;2023-05-16T10:51:39;10.10;;;1.70;;
77417;SDS011;66490;51.484;0.026;2023-05-16T10:54:24;6.22;;;1.67;;
77417;SDS011;66490;51.484;0.026;2023-05-16T10:57:19;9.27;;;1.02;;
77417;SDS011;66490;51.484;0.026;2023-05-16T11:00:06;5.00;;;1.13;;
77417;SDS011;66490;51.484;0.026;2023-05-16T11:02:50;6.28;;;1.75;;
77417;SDS011;66490;51.484;0.026;2023-05-16T11:05:34;5.17;;;1.10;;
77417;SDS011;66490;51.484;0.026;2023-05-16T11:08:18;4.47;;;1.08;;
77417;SDS011;66490;51.484;0.026;2023-05-16T11:14:06;5.90;;;1.20;;
77417;SDS011;66490;51.484;0.026;2023-05-16T11:16:51;6.60;;;1.50;;
77417;SDS011;66490;51.484;0.026;2023-05-16T11:22:27;6.05;;;1.42;;
77417;SDS011;66490;51.484;0.026;2023-05-16T11:25:12;5.22;;;1.00;;
77417;SDS011;66490;51.484;0.026;2023-05-16T11:27:59;6.57;;;1.40;;
77417;SDS011;66490;51.484;0.026;2023-05-16T11:30:48;5.80;;;1.50;;
77417;SDS011;66490;51.484;0.026;2023-05-16T11:33:32;6.87;;;1.00;;
77417;SDS011;66490;51.484;0.026;2023-05-16T11:36:18;6.47;;;1.33;;
77417;SDS011;66490;51.484;0.026;2023-05-16T11:39:06;7.88;;;1.48;;
77417;SDS011;66490;51.484;0.026;2023-05-16T11:41:54;8.50;;;1.23;;
77417;SDS011;66490;51.484;0.026;2023-05-16T11:44:39;5.50;;;0.90;;
77417;SDS011;66490;51.484;0.026;2023-05-16T11:47:23;4.67;;;1.20;;
77417;SDS011;66490;51.484;0.026;2023-05-16T11:50:15;6.95;;;1.10;;
77417;SDS011;66490;51.484;0.026;2023-05-16T11:53:00;5.78;;;1.23;;
77417;SDS011;66490;51.484;0.026;2023-05-16T11:55:44;4.15;;;0.93;;
77417;SDS011;66490;51.484;0.026;2023-05-16T11:58:34;6.07;;;1.38;;
77417;SDS011;66490;51.484;0.026;2023-05-16T12:01:20;4.27;;;1.20;;
77417;SDS011;66490;51.484;0.026;2023-05-16T12:06:59;6.57;;;1.13;;
77417;SDS011;66490;51.484;0.026;2023-05-16T12:09:50;6.47;;;1.60;;
77417;SDS011;66490;51.484;0.026;2023-05-16T12:12:36;7.65;;;1.35;;
77417;SDS011;66490;51.484;0.026;2023-05-16T12:15:20;8.13;;;1.20;;
77417;SDS011;66490;51.484;0.026;2023-05-16T12:18:05;8.35;;;1.42;;
77417;SDS011;66490;51.484;0.026;2023-05-16T12:20:49;3.15;;;0.95;;
77417;SDS011;66490;51.484;0.026;2023-05-16T12:23:33;6.03;;;1.77;;
77417;SDS011;66490;51.484;0.026;2023-05-16T12:26:23;5.10;;;1.70;;
77417;SDS011;66490;51.484;0.026;2023-05-16T12:29:07;4.63;;;1.30;;
77417;SDS011;66490;51.484;0.026;2023-05-16T12:31:51;5.28;;;1.38;;
77417;SDS011;66490;51.484;0.026;2023-05-16T12:34:48;6.13;;;1.73;;
77417;SDS011;66490;51.484;0.026;2023-05-16T12:37:32;4.57;;;1.02;;
77417;SDS011;66490;51.484;0.026;2023-05-16T12:40:16;4.90;;;1.00;;
77417;SDS011;66490;51.484;0.026;2023-05-16T12:43:00;6.13;;;1.40;;
77417;SDS011;66490;51.484;0.026;2023-05-16T12:45:50;7.03;;;1.27;;
77417;SDS011;66490;51.484;0.026;2023-05-16T12:48:38;6.43;;;1.20;;
77417;SDS011;66490;51.484;0.026;2023-05-16T12:51:26;5.68;;;1.45;;
77417;SDS011;66490;51.484;0.026;2023-05-16T12:54:11;4.72;;;1.30;;
77417;SDS011;66490;51.484;0.026;2023-05-16T12:56:56;5.17;;;0.90;;
77417;SDS011;66490;51.484;0.026;2023-05-16T12:59:40;5.45;;;1.23;;
77417;SDS011;66490;51.484;0.026;2023-05-16T13:02:24;6.57;;;1.52;;
77417;SDS011;66490;51.484;0.026;2023-05-16T13:05:08;7.38;;;1.15;;
77417;SDS011;66490;51.484;0.026;2023-05-16T13:07:53;7.32;;;1.40;;
77417;SDS011;66490;51.484;0.026;2023-05-16T13:10:37;5.67;;;1.37;;
77417;SDS011;66490;51.484;0.026;2023-05-16T13:13:21;6.80;;;1.20;;
77417;SDS011;66490;51.484;0.026;2023-05-16T13:16:05;7.90;;;1.20;;
77417;SDS011;66490;51.484;0.026;2023-05-16T13:18:49;6.25;;;1.17;;
77417;SDS011;66490;51.484;0.026;2023-05-16T13:21:33;6.47;;;1.55;;
77417;SDS011;66490;51.484;0.026;2023-05-16T13:24:17;3.97;;;1.10;;
77417;SDS011;66490;51.484;0.026;2023-05-16T13:27:01;7.07;;;1.50;;
77417;SDS011;66490;51.484;0.026;2023-05-16T13:29:45;5.72;;;1.50;;
77417;SDS011;66490;51.484;0.026;2023-05-16T13:32:30;5.50;;;1.35;;
77417;SDS011;66490;51.484;0.026;2023-05-16T13:35:14;5.60;;;1.42;;
77417;SDS011;66490;51.484;0.026;2023-05-16T13:37:58;5.27;;;1.30;;
77417;SDS011;66490;51.484;0.026;2023-05-16T13:40:42;6.95;;;1.75;;
77417;SDS011;66490;51.484;0.026;2023-05-16T13:43:26;7.88;;;1.92;;
77417;SDS011;66490;51.484;0.026;2023-05-16T13:46:10;6.43;;;1.60;;
77417;SDS011;66490;51.484;0.026;2023-05-16T13:48:54;11.27;;;1.92;;
77417;SDS011;66490;51.484;0.026;2023-05-16T13:51:38;6.93;;;1.30;;
77417;SDS011;66490;51.484;0.026;2023-05-16T13:54:22;9.25;;;2.50;;
77417;SDS011;66490;51.484;0.026;2023-05-16T13:57:06;7.03;;;1.80;;
77417;SDS011;66490;51.484;0.026;2023-05-16T13:59:50;4.90;;;1.45;;
77417;SDS011;66490;51.484;0.026;2023-05-16T14:02:34;7.63;;;1.70;;
77417;SDS011;66490;51.484;0.026;2023-05-16T14:05:18;6.40;;;1.80;;
77417;SDS011;66490;51.484;0.026;2023-05-16T14:08:02;11.48;;;1.85;;
77417;SDS011;66490;51.484;0.026;2023-05-16T14:10:47;8.18;;;1.60;;
77417;SDS011;66490;51.484;0.026;2023-05-16T14:13:34;7.10;;;1.63;;
77417;SDS011;66490;51.484;0.026;2023-05-16T14:16:23;8.18;;;2.40;;
77417;SDS011;66490;51.484;0.026;2023-05-16T14:19:07;8.43;;;2.17;;
77417;SDS011;66490;51.484;0.026;2023-05-16T14:21:50;6.20;;;2.17;;
77417;SDS011;66490;51.484;0.026;2023-05-16T14:24:34;9.43;;;2.42;;
77417;SDS011;66490;51.484;0.026;2023-05-16T14:27:18;9.35;;;1.60;;
77417;SDS011;66490;51.484;0.026;2023-05-16T14:30:03;10.15;;;2.72;;
77417;SDS011;66490;51.484;0.026;2023-05-16T14:32:47;6.93;;;1.60;;
77417;SDS011;66490;51.484;0.026;2023-05-16T14:35:31;6.15;;;2.15;;
77417;SDS011;66490;51.484;0.026;2023-05-16T14:38:15;17.00;;;2.83;;
77417;SDS011;66490;51.484;0.026;2023-05-16T14:41:00;6.85;;;2.30;;
77417;SDS011;66490;51.484;0.026;2023-05-16T14:43:44;6.50;;;2.95;;
77417;SDS011;66490;51.484;0.026;2023-05-16T14:46:29;9.10;;;2.60;;
77417;SDS011;66490;51.484;0.026;2023-05-16T14:49:13;7.25;;;2.22;;
77417;SDS011;66490;51.484;0.026;2023-05-16T14:51:56;8.38;;;3.05;;
77417;SDS011;66490;51.484;0.026;2023-05-16T14:54:40;8.20;;;3.20;;
77417;SDS011;66490;51.484;0.026;2023-05-16T14:57:24;9.65;;;2.75;;
77417;SDS011;66490;51.484;0.026;2023-05-16T15:00:09;6.80;;;2.50;;
77417;SDS011;66490;51.484;0.026;2023-05-16T15:02:53;9.68;;;3.20;;
77417;SDS011;66490;51.484;0.026;2023-05-16T15:05:39;7.13;;;3.83;;
77417;SDS011;66490;51.484;0.026;2023-05-16T15:08:23;7.90;;;2.92;;
77417;SDS011;66490;51.484;0.026;2023-05-16T15:11:07;10.35;;;3.83;;
77417;SDS011;66490;51.484;0.026;2023-05-16T15:13:51;9.13;;;3.33;;
77417;SDS011;66490;51.484;0.026;2023-05-16T15:16:36;8.77;;;3.10;;
77417;SDS011;66490;51.484;0.026;2023-05-16T15:19:23;10.02;;;4.05;;
77417;SDS011;66490;51.484;0.026;2023-05-16T15:22:08;9.32;;;2.95;;
77417;SDS011;66490;51.484;0.026;2023-05-16T15:24:54;10.82;;;3.47;;
77417;SDS011;66490;51.484;0.026;2023-05-16T15:27:39;12.43;;;3.60;;
77417;SDS011;66490;51.484;0.026;2023-05-16T15:30:23;10.50;;;3.85;;
77417;SDS011;66490;51.484;0.026;2023-05-16T15:33:06;8.95;;;3.33;;
77417;SDS011;66490;51.484;0.026;2023-05-16T15:35:51;13.35;;;4.07;;
77417;SDS011;66490;51.484;0.026;2023-05-16T15:38:34;12.02;;;3.83;;
77417;SDS011;66490;51.484;0.026;2023-05-16T15:41:19;12.93;;;4.17;;
77417;SDS011;66490;51.484;0.026;2023-05-16T15:44:03;11.50;;;3.47;;
77417;SDS011;66490;51.484;0.026;2023-05-16T15:46:48;11.35;;;4.05;;
77417;SDS011;66490;51.484;0.026;2023-05-16T15:49:32;9.45;;;3.78;;
77417;SDS011;66490;51.484;0.026;2023-05-16T15:52:23;11.57;;;4.80;;
77417;SDS011;66490;51.484;0.026;2023-05-16T15:55:07;10.73;;;3.70;;
77417;SDS011;66490;51.484;0.026;2023-05-16T15:57:51;11.48;;;4.70;;
77417;SDS011;66490;51.484;0.026;2023-05-16T16:00:39;12.13;;;5.03;;
77417;SDS011;66490;51.484;0.026;2023-05-16T16:03:24;14.10;;;4.82;;
77417;SDS011;66490;51.484;0.026;2023-05-16T16:06:08;11.13;;;4.53;;
77417;SDS011;66490;51.484;0.026;2023-05-16T16:08:52;15.70;;;4.67;;
77417;SDS011;66490;51.484;0.026;2023-05-16T16:11:39;9.85;;;3.85;;
77417;SDS011;66490;51.484;0.026;2023-05-16T16:14:23;11.55;;;4.15;;
77417;SDS011;66490;51.484;0.026;2023-05-16T16:17:07;11.13;;;5.10;;
77417;SDS011;66490;51.484;0.026;2023-05-16T16:19:51;11.32;;;4.20;;
77417;SDS011;66490;51.484;0.026;2023-05-16T16:22:35;13.30;;;4.60;;
77417;SDS011;66490;51.484;0.026;2023-05-16T16:25:20;11.68;;;5.05;;
77417;SDS011;66490;51.484;0.026;2023-05-16T16:28:04;15.90;;;5.88;;
77417;SDS011;66490;51.484;0.026;2023-05-16T16:30:48;11.48;;;5.10;;
77417;SDS011;66490;51.484;0.026;2023-05-16T16:33:33;11.77;;;5.03;;
77417;SDS011;66490;51.484;0.026;2023-05-16T16:36:17;17.33;;;4.80;;
77417;SDS011;66490;51.484;0.026;2023-05-16T16:39:01;15.23;;;4.63;;
77417;SDS011;66490;51.484;0.026;2023-05-16T16:41:45;12.90;;;5.40;;